createdAt,value
2022-10-30T00:01:03.931Z,14.20
2022-10-30T00:02:25.948Z,14.30
2022-10-30T00:03:48.034Z,14.20
2022-10-30T00:05:10.036Z,14.20
2022-10-30T00:06:32.075Z,14.20
2022-10-30T00:07:57.621Z,14.20
2022-10-30T00:09:19.777Z,14.20
2022-10-30T00:10:42.324Z,14.20
2022-10-30T00:12:04.665Z,14.10
2022-10-30T00:13:26.674Z,14.10
2022-10-30T00:14:48.637Z,14.10
2022-10-30T00:16:11.168Z,14.10
2022-10-30T00:17:33.596Z,14.10
2022-10-30T00:18:55.565Z,14.00
2022-10-30T00:20:17.696Z,14.00
2022-10-30T00:21:39.732Z,14.00
2022-10-30T00:23:01.884Z,14.00
2022-10-30T00:24:24.582Z,13.90
2022-10-30T00:25:46.605Z,13.90
2022-10-30T00:27:08.687Z,13.90
2022-10-30T00:28:30.875Z,13.90
2022-10-30T00:29:52.934Z,13.90
2022-10-30T00:31:15.010Z,13.90
2022-10-30T00:32:37.080Z,13.80
2022-10-30T00:33:59.075Z,13.80
2022-10-30T00:35:21.091Z,13.80
2022-10-30T00:36:43.112Z,13.80
2022-10-30T00:38:05.091Z,13.80
2022-10-30T00:39:27.096Z,13.80
2022-10-30T00:40:49.545Z,13.80
2022-10-30T00:42:13.708Z,13.80
2022-10-30T00:43:38.785Z,13.80
2022-10-30T00:45:00.888Z,13.70
2022-10-30T00:46:39.361Z,13.70
2022-10-30T00:48:03.824Z,13.70
2022-10-30T00:49:25.999Z,13.70
2022-10-30T00:50:48.143Z,13.80
2022-10-30T00:52:10.899Z,13.80
2022-10-30T00:53:33.317Z,13.80
2022-10-30T00:54:57.414Z,13.80
2022-10-30T00:56:22.221Z,13.80
2022-10-30T00:57:45.690Z,13.70
2022-10-30T00:59:16.032Z,13.80
2022-10-30T01:00:41.711Z,13.80
2022-10-30T01:02:04.751Z,13.80
2022-10-30T01:03:28.328Z,13.80
2022-10-30T01:04:52.625Z,13.80
2022-10-30T01:06:17.254Z,13.80
2022-10-30T01:07:39.253Z,13.70
2022-10-30T01:09:02.609Z,13.70
2022-10-30T01:10:25.044Z,13.70
2022-10-30T01:11:47.090Z,13.70
2022-10-30T01:13:09.647Z,13.80
2022-10-30T01:14:33.878Z,13.70
2022-10-30T01:16:28.246Z,13.70
2022-10-30T01:18:14.477Z,13.70
2022-10-30T01:20:22.429Z,13.70
2022-10-30T01:22:18.056Z,13.70
2022-10-30T01:23:43.124Z,13.70
2022-10-30T01:25:34.613Z,13.70
2022-10-30T01:27:20.259Z,13.70
2022-10-30T01:29:23.482Z,13.70
2022-10-30T01:31:13.561Z,13.70
2022-10-30T01:33:01.609Z,13.70
2022-10-30T01:34:50.997Z,13.70
2022-10-30T01:36:26.152Z,13.70
2022-10-30T01:38:10.333Z,13.70
2022-10-30T01:39:38.576Z,13.70
2022-10-30T01:41:00.569Z,13.70
2022-10-30T01:42:52.283Z,13.60
2022-10-30T01:44:22.252Z,13.60
2022-10-30T01:46:04.860Z,13.60
2022-10-30T01:47:43.681Z,13.60
2022-10-30T01:49:30.178Z,13.50
2022-10-30T01:51:33.114Z,13.50
2022-10-30T01:53:12.981Z,13.40
2022-10-30T01:54:46.586Z,13.40
2022-10-30T01:56:28.264Z,13.40
2022-10-30T01:57:54.789Z,13.30
2022-10-30T01:59:44.441Z,13.30
2022-10-30T02:01:07.021Z,13.30
2022-10-30T02:02:30.523Z,13.30
2022-10-30T02:03:52.773Z,13.20
2022-10-30T02:05:25.371Z,13.20
2022-10-30T02:06:47.630Z,13.30
2022-10-30T02:08:09.679Z,13.20
2022-10-30T02:09:31.943Z,13.20
2022-10-30T02:10:54.887Z,13.20
2022-10-30T02:12:18.605Z,13.20
2022-10-30T02:13:40.674Z,13.10
2022-10-30T02:15:03.156Z,13.10
2022-10-30T02:16:25.156Z,13.10
2022-10-30T02:17:47.575Z,13.10
2022-10-30T02:19:09.617Z,13.10
2022-10-30T02:20:32.264Z,13.00
2022-10-30T02:21:54.531Z,13.10
2022-10-30T02:23:18.912Z,13.00
2022-10-30T02:24:40.967Z,13.00
2022-10-30T02:26:03.604Z,13.00
2022-10-30T02:27:25.760Z,13.00
2022-10-30T02:28:47.755Z,13.00
2022-10-30T02:30:10.647Z,13.00
2022-10-30T02:31:32.723Z,12.90
2022-10-30T02:32:54.908Z,13.00
2022-10-30T02:34:17.320Z,13.00
2022-10-30T02:35:39.348Z,13.00
2022-10-30T02:37:01.566Z,13.00
2022-10-30T02:38:24.097Z,13.00
2022-10-30T02:39:46.099Z,13.00
2022-10-30T02:41:08.259Z,13.00
2022-10-30T02:42:30.408Z,13.00
2022-10-30T02:43:53.502Z,12.90
2022-10-30T02:45:15.528Z,12.90
2022-10-30T02:46:37.529Z,12.90
2022-10-30T02:48:03.244Z,12.90
2022-10-30T02:49:25.553Z,12.90
2022-10-30T02:50:47.538Z,12.90
2022-10-30T02:52:09.628Z,12.80
2022-10-30T02:53:33.564Z,12.80
2022-10-30T02:54:55.583Z,12.80
2022-10-30T02:56:17.751Z,12.80
2022-10-30T02:57:39.760Z,12.80
2022-10-30T02:59:01.798Z,12.70
2022-10-30T03:00:23.817Z,12.70
2022-10-30T03:01:45.949Z,12.70
2022-10-30T03:03:08.171Z,12.70
2022-10-30T03:04:30.613Z,12.70
2022-10-30T03:05:52.700Z,12.70
2022-10-30T03:07:14.730Z,12.70
2022-10-30T03:08:37.168Z,12.70
2022-10-30T03:09:59.123Z,12.70
2022-10-30T03:11:21.650Z,12.70
2022-10-30T03:12:44.223Z,12.70
2022-10-30T03:14:06.254Z,12.70
2022-10-30T03:15:28.262Z,12.70
2022-10-30T03:16:52.516Z,12.70
2022-10-30T03:18:14.554Z,12.70
2022-10-30T03:19:36.561Z,12.70
2022-10-30T03:20:59.993Z,12.70
2022-10-30T03:22:21.993Z,12.80
2022-10-30T03:23:44.305Z,12.80
2022-10-30T03:25:06.492Z,12.80
2022-10-30T03:26:28.605Z,12.80
2022-10-30T03:27:50.622Z,12.80
2022-10-30T03:29:12.633Z,12.80
2022-10-30T03:30:34.665Z,12.80
2022-10-30T03:31:56.761Z,12.80
2022-10-30T03:33:18.881Z,12.80
2022-10-30T03:34:40.937Z,12.80
2022-10-30T03:36:05.182Z,12.80
2022-10-30T03:37:27.238Z,12.80
2022-10-30T03:38:49.243Z,12.80
2022-10-30T03:40:11.804Z,12.80
2022-10-30T03:41:33.889Z,12.90
2022-10-30T03:42:56.263Z,12.90
2022-10-30T03:44:18.512Z,12.80
2022-10-30T03:45:40.562Z,12.90
2022-10-30T03:47:02.574Z,12.90
2022-10-30T03:48:26.961Z,12.90
2022-10-30T03:49:48.982Z,12.90
2022-10-30T03:51:10.948Z,12.90
2022-10-30T03:52:32.995Z,12.90
2022-10-30T03:53:54.978Z,12.80
2022-10-30T03:55:16.963Z,12.90
2022-10-30T03:56:38.950Z,12.90
2022-10-30T03:58:01.146Z,12.90
2022-10-30T03:59:23.277Z,12.90
2022-10-30T04:00:45.278Z,12.90
2022-10-30T04:02:07.406Z,12.90
2022-10-30T04:03:29.671Z,12.90
2022-10-30T04:04:51.686Z,12.90
2022-10-30T04:06:13.816Z,12.90
2022-10-30T04:07:35.833Z,13.00
2022-10-30T04:08:57.842Z,13.00
2022-10-30T04:10:22.918Z,13.00
2022-10-30T04:11:46.106Z,13.00
2022-10-30T04:13:09.395Z,13.00
2022-10-30T04:14:31.418Z,13.00
2022-10-30T04:15:56.287Z,13.00
2022-10-30T04:17:19.360Z,13.10
2022-10-30T04:18:41.479Z,13.10
2022-10-30T04:20:03.823Z,13.10
2022-10-30T04:21:25.908Z,13.10
2022-10-30T04:22:48.114Z,13.20
2022-10-30T04:24:10.322Z,13.20
2022-10-30T04:25:34.672Z,13.20
2022-10-30T04:26:56.692Z,13.20
2022-10-30T04:28:18.786Z,13.20
2022-10-30T04:29:42.169Z,13.20
2022-10-30T04:31:04.270Z,13.20
2022-10-30T04:32:26.413Z,13.20
2022-10-30T04:33:48.489Z,13.20
2022-10-30T04:35:10.518Z,13.20
2022-10-30T04:36:35.206Z,13.20
2022-10-30T04:38:02.750Z,13.20
2022-10-30T04:39:24.785Z,13.20
2022-10-30T04:40:46.831Z,13.20
2022-10-30T04:42:08.853Z,13.20
2022-10-30T04:43:30.845Z,13.20
2022-10-30T04:44:52.910Z,13.20
2022-10-30T04:46:14.912Z,13.20
2022-10-30T04:47:36.950Z,13.20
2022-10-30T04:48:58.953Z,13.20
2022-10-30T04:50:20.970Z,13.20
2022-10-30T04:51:43.335Z,13.20
2022-10-30T04:53:12.903Z,13.20
2022-10-30T04:54:34.933Z,13.20
2022-10-30T04:55:57.033Z,13.20
2022-10-30T04:57:19.048Z,13.20
2022-10-30T04:58:41.314Z,13.20
2022-10-30T05:00:08.065Z,13.30
2022-10-30T05:01:30.125Z,13.20
2022-10-30T05:02:52.301Z,13.20
2022-10-30T05:04:14.336Z,13.20
2022-10-30T05:05:36.427Z,13.20
2022-10-30T05:06:58.473Z,13.20
2022-10-30T05:08:20.477Z,13.20
2022-10-30T05:09:42.504Z,13.20
2022-10-30T05:11:05.427Z,13.20
2022-10-30T05:12:27.436Z,13.20
2022-10-30T05:13:49.587Z,13.20
2022-10-30T05:15:12.854Z,13.20
2022-10-30T05:16:34.963Z,13.20
2022-10-30T05:17:57.253Z,13.20
2022-10-30T05:19:19.634Z,13.20
2022-10-30T05:20:41.674Z,13.20
2022-10-30T05:22:03.796Z,13.20
2022-10-30T05:23:25.838Z,13.30
2022-10-30T05:24:47.895Z,13.30
2022-10-30T05:26:09.900Z,13.20
2022-10-30T05:27:31.919Z,13.20
2022-10-30T05:28:53.973Z,13.20
2022-10-30T05:30:16.164Z,13.20
2022-10-30T05:31:38.268Z,13.20
2022-10-30T05:33:05.934Z,13.30
2022-10-30T05:34:27.972Z,13.30
2022-10-30T05:35:50.009Z,13.30
2022-10-30T05:37:12.025Z,13.30
2022-10-30T05:38:34.057Z,13.30
2022-10-30T05:39:56.085Z,13.30
2022-10-30T05:41:18.090Z,13.30
2022-10-30T05:42:46.101Z,13.30
2022-10-30T05:44:08.122Z,13.30
2022-10-30T05:45:30.263Z,13.30
2022-10-30T05:46:52.325Z,13.30
2022-10-30T05:48:14.376Z,13.30
2022-10-30T05:49:36.403Z,13.30
2022-10-30T05:50:58.664Z,13.30
2022-10-30T05:52:20.768Z,13.30
2022-10-30T05:53:42.749Z,13.30
2022-10-30T05:55:05.063Z,13.30
2022-10-30T05:56:27.120Z,13.30
2022-10-30T05:57:49.207Z,13.30
2022-10-30T05:59:11.277Z,13.30
2022-10-30T06:00:35.797Z,13.30
2022-10-30T06:01:58.276Z,13.20
2022-10-30T06:03:20.349Z,13.30
2022-10-30T06:04:42.362Z,13.20
2022-10-30T06:06:04.520Z,13.30
2022-10-30T06:07:26.537Z,13.20
2022-10-30T06:08:48.579Z,13.20
2022-10-30T06:10:10.618Z,13.20
2022-10-30T06:11:32.687Z,13.20
2022-10-30T06:12:56.339Z,13.20
2022-10-30T06:14:18.708Z,13.20
2022-10-30T06:15:40.774Z,13.20
2022-10-30T06:17:02.785Z,13.20
2022-10-30T06:18:24.866Z,13.30
2022-10-30T06:19:46.884Z,13.30
2022-10-30T06:21:08.928Z,13.30
2022-10-30T06:22:30.940Z,13.30
2022-10-30T06:23:52.957Z,13.30
2022-10-30T06:25:15.173Z,13.30
2022-10-30T06:26:37.194Z,13.30
2022-10-30T06:28:00.310Z,13.30
2022-10-30T06:29:22.553Z,13.40
2022-10-30T06:30:44.550Z,13.40
2022-10-30T06:32:06.965Z,13.40
2022-10-30T06:33:29.214Z,13.40
2022-10-30T06:34:51.277Z,13.50
2022-10-30T06:36:13.360Z,13.50
2022-10-30T06:37:35.460Z,13.50
2022-10-30T06:38:57.525Z,13.50
2022-10-30T06:40:20.027Z,13.50
2022-10-30T06:41:42.033Z,13.60
2022-10-30T06:43:04.229Z,13.60
2022-10-30T06:44:26.364Z,13.60
2022-10-30T06:45:48.407Z,13.60
2022-10-30T06:47:10.428Z,13.60
2022-10-30T06:48:32.483Z,13.60
2022-10-30T06:49:54.484Z,13.60
2022-10-30T06:51:17.003Z,13.70
2022-10-30T06:52:39.440Z,13.70
2022-10-30T06:54:01.433Z,13.70
2022-10-30T06:55:23.641Z,13.70
2022-10-30T06:56:50.170Z,13.70
2022-10-30T06:58:12.151Z,13.70
2022-10-30T06:59:34.158Z,13.80
2022-10-30T07:00:56.343Z,13.70
2022-10-30T07:02:18.496Z,13.80
2022-10-30T07:03:40.581Z,13.80
2022-10-30T07:05:03.089Z,13.80
2022-10-30T07:06:25.188Z,13.80
2022-10-30T07:07:47.356Z,13.80
2022-10-30T07:09:09.445Z,13.80
2022-10-30T07:10:31.566Z,13.90
2022-10-30T07:11:56.630Z,13.90
2022-10-30T07:13:19.009Z,13.90
2022-10-30T07:14:41.643Z,14.00
2022-10-30T07:16:03.766Z,14.00
2022-10-30T07:17:25.877Z,14.00
2022-10-30T07:18:47.878Z,14.00
2022-10-30T07:20:10.337Z,14.10
2022-10-30T07:21:32.442Z,14.10
2022-10-30T07:22:54.673Z,14.20
2022-10-30T07:24:16.768Z,14.20
2022-10-30T07:25:38.765Z,14.20
2022-10-30T07:27:00.790Z,14.30
2022-10-30T07:28:22.931Z,14.30
2022-10-30T07:29:44.977Z,14.40
2022-10-30T07:31:07.018Z,14.40
2022-10-30T07:32:29.022Z,14.40
2022-10-30T07:33:51.059Z,14.50
2022-10-30T07:35:14.249Z,14.50
2022-10-30T07:36:36.286Z,14.50
2022-10-30T07:38:10.545Z,14.60
2022-10-30T07:39:32.534Z,14.60
2022-10-30T07:40:54.595Z,14.60
2022-10-30T07:42:16.591Z,14.70
2022-10-30T07:43:38.614Z,14.70
2022-10-30T07:45:00.698Z,14.70
2022-10-30T07:46:22.716Z,14.70
2022-10-30T07:47:44.768Z,14.80
2022-10-30T07:49:07.026Z,14.80
2022-10-30T07:50:29.081Z,14.80
2022-10-30T07:51:51.057Z,14.80
2022-10-30T07:53:13.132Z,14.90
2022-10-30T07:54:35.176Z,14.90
2022-10-30T07:55:57.715Z,14.90
2022-10-30T07:57:19.677Z,15.00
2022-10-30T07:58:45.440Z,15.00
2022-10-30T08:00:10.612Z,15.10
2022-10-30T08:01:32.791Z,15.10
2022-10-30T08:02:58.655Z,15.10
2022-10-30T08:04:21.018Z,15.20
2022-10-30T08:05:43.289Z,15.20
2022-10-30T08:07:05.340Z,15.20
2022-10-30T08:08:27.885Z,15.20
2022-10-30T08:09:49.895Z,15.20
2022-10-30T08:11:11.916Z,15.30
2022-10-30T08:12:34.991Z,15.30
2022-10-30T08:13:57.131Z,15.30
2022-10-30T08:15:19.116Z,15.40
2022-10-30T08:16:41.148Z,15.40
2022-10-30T08:18:03.123Z,15.50
2022-10-30T08:19:25.111Z,15.60
2022-10-30T08:20:50.653Z,15.60
2022-10-30T08:22:13.657Z,15.70
2022-10-30T08:23:35.863Z,15.70
2022-10-30T08:24:57.863Z,15.80
2022-10-30T08:26:19.888Z,16.00
2022-10-30T08:28:01.462Z,16.10
2022-10-30T08:29:23.434Z,16.30
2022-10-30T08:30:45.481Z,16.40
2022-10-30T08:32:07.728Z,16.50
2022-10-30T08:33:29.896Z,16.50
2022-10-30T08:34:51.843Z,16.50
2022-10-30T08:36:13.860Z,16.60
2022-10-30T08:37:35.950Z,16.60
2022-10-30T08:38:58.472Z,16.60
2022-10-30T08:40:20.648Z,16.50
2022-10-30T08:41:42.616Z,16.50
2022-10-30T08:43:04.687Z,16.50
2022-10-30T08:44:27.086Z,16.50
2022-10-30T08:45:49.059Z,16.50
2022-10-30T08:47:11.102Z,16.60
2022-10-30T08:48:33.097Z,16.60
2022-10-30T08:49:55.041Z,16.70
2022-10-30T08:51:17.206Z,16.80
2022-10-30T08:52:39.221Z,16.90
2022-10-30T08:54:01.470Z,17.00
2022-10-30T08:55:23.485Z,17.10
2022-10-30T08:56:45.514Z,17.20
2022-10-30T08:58:07.555Z,17.30
2022-10-30T08:59:29.562Z,17.40
2022-10-30T09:00:52.548Z,17.40
2022-10-30T09:02:17.050Z,17.50
2022-10-30T09:03:39.726Z,17.50
2022-10-30T09:05:01.840Z,17.60
2022-10-30T09:06:24.015Z,17.60
2022-10-30T09:07:47.066Z,17.60
2022-10-30T09:09:09.085Z,17.70
2022-10-30T09:10:31.904Z,17.70
2022-10-30T09:11:53.922Z,17.70
2022-10-30T09:13:15.906Z,17.70
2022-10-30T09:14:37.897Z,17.70
2022-10-30T09:16:03.066Z,17.70
2022-10-30T09:17:25.274Z,17.80
2022-10-30T09:18:47.345Z,17.80
2022-10-30T09:20:10.269Z,17.90
2022-10-30T09:21:32.299Z,17.90
2022-10-30T09:22:54.819Z,18.00
2022-10-30T09:24:16.882Z,18.10
2022-10-30T09:25:38.958Z,18.10
2022-10-30T09:27:00.983Z,18.20
2022-10-30T09:28:23.004Z,18.20
2022-10-30T09:29:44.996Z,18.20
2022-10-30T09:31:07.041Z,18.20
2022-10-30T09:32:29.026Z,18.20
2022-10-30T09:33:51.062Z,18.20
2022-10-30T09:35:13.162Z,18.30
2022-10-30T09:36:35.416Z,18.30
2022-10-30T09:37:58.106Z,18.30
2022-10-30T09:39:20.316Z,18.30
2022-10-30T09:41:16.165Z,18.40
2022-10-30T09:42:42.589Z,18.40
2022-10-30T09:44:16.681Z,18.40
2022-10-30T09:45:53.277Z,18.40
2022-10-30T09:47:53.871Z,18.40
2022-10-30T09:49:46.840Z,18.40
2022-10-30T09:51:27.342Z,18.50
2022-10-30T09:53:03.532Z,18.60
2022-10-30T09:54:44.117Z,18.60
2022-10-30T09:56:21.299Z,18.60
2022-10-30T09:57:52.112Z,18.60
2022-10-30T09:59:17.846Z,18.60
2022-10-30T10:01:06.953Z,18.60
2022-10-30T10:02:45.028Z,18.60
2022-10-30T10:04:26.962Z,18.60
2022-10-30T10:05:56.352Z,18.60
2022-10-30T10:07:34.654Z,18.70
2022-10-30T10:09:05.031Z,18.70
2022-10-30T10:10:43.415Z,18.70
2022-10-30T10:12:10.949Z,18.80
2022-10-30T10:13:38.354Z,18.80
2022-10-30T10:15:04.438Z,18.80
2022-10-30T10:16:35.218Z,18.80
2022-10-30T10:18:01.369Z,18.90
2022-10-30T10:19:49.712Z,18.90
2022-10-30T10:21:23.490Z,19.00
2022-10-30T10:22:50.328Z,19.10
2022-10-30T10:24:19.988Z,19.20
2022-10-30T10:25:50.346Z,19.20
2022-10-30T10:27:49.235Z,19.20
2022-10-30T10:29:35.305Z,19.30
2022-10-30T10:31:17.631Z,19.30
2022-10-30T10:32:45.736Z,19.30
2022-10-30T10:34:19.596Z,19.30
2022-10-30T10:35:59.555Z,19.30
2022-10-30T10:37:30.319Z,19.30
2022-10-30T10:38:52.290Z,19.40
2022-10-30T10:40:23.507Z,19.40
2022-10-30T10:42:00.500Z,19.40
2022-10-30T10:43:22.466Z,19.40
2022-10-30T10:45:06.921Z,19.40
2022-10-30T10:46:50.175Z,19.50
2022-10-30T10:48:34.157Z,19.50
2022-10-30T10:50:27.169Z,19.60
2022-10-30T10:52:02.177Z,19.70
2022-10-30T10:53:42.521Z,19.70
2022-10-30T10:55:16.052Z,19.80
2022-10-30T10:56:44.858Z,19.80
2022-10-30T10:58:25.630Z,19.80
2022-10-30T10:59:53.360Z,19.90
2022-10-30T11:01:22.675Z,19.90
2022-10-30T11:03:00.842Z,19.90
2022-10-30T11:04:32.106Z,19.80
2022-10-30T11:05:58.743Z,19.70
2022-10-30T11:07:26.900Z,19.60
2022-10-30T11:08:52.439Z,19.50
2022-10-30T11:10:16.245Z,19.50
2022-10-30T11:11:38.555Z,19.30
2022-10-30T11:13:01.875Z,19.30
2022-10-30T11:14:28.800Z,19.40
2022-10-30T11:16:18.659Z,19.40
2022-10-30T11:17:52.455Z,19.50
2022-10-30T11:19:14.490Z,19.60
2022-10-30T11:20:55.371Z,19.70
2022-10-30T11:22:35.174Z,19.90
2022-10-30T11:23:57.255Z,20.00
2022-10-30T11:25:32.968Z,20.10
2022-10-30T11:26:57.556Z,20.20
2022-10-30T11:28:35.769Z,20.30
2022-10-30T11:30:06.117Z,20.40
2022-10-30T11:31:34.727Z,20.50
2022-10-30T11:32:58.550Z,20.50
2022-10-30T11:34:29.315Z,20.60
2022-10-30T11:35:51.407Z,20.60
2022-10-30T11:37:31.102Z,20.60
2022-10-30T11:38:58.191Z,20.50
2022-10-30T11:40:24.009Z,20.50
2022-10-30T11:42:13.290Z,20.40
2022-10-30T11:43:35.371Z,20.40
2022-10-30T11:44:57.716Z,20.40
2022-10-30T11:46:24.176Z,20.40
2022-10-30T11:47:47.314Z,20.40
2022-10-30T11:49:30.553Z,20.50
2022-10-30T11:50:56.387Z,20.40
2022-10-30T11:52:22.523Z,20.50
2022-10-30T11:53:50.236Z,20.50
2022-10-30T11:55:19.165Z,20.50
2022-10-30T11:56:48.336Z,20.50
2022-10-30T11:58:28.103Z,20.60
2022-10-30T11:59:53.981Z,20.70
2022-10-30T12:01:31.698Z,20.80
2022-10-30T12:02:56.877Z,20.80
2022-10-30T12:04:27.536Z,20.90
2022-10-30T12:05:50.429Z,20.90
2022-10-30T12:07:29.287Z,20.90
2022-10-30T12:09:22.623Z,21.00
2022-10-30T12:10:46.580Z,21.00
2022-10-30T12:12:20.032Z,21.10
2022-10-30T12:13:42.575Z,21.20
2022-10-30T12:15:19.933Z,21.20
2022-10-30T12:16:47.681Z,21.40
2022-10-30T12:18:19.866Z,21.60
2022-10-30T12:19:57.354Z,21.80
2022-10-30T12:21:20.292Z,22.00
2022-10-30T12:22:42.317Z,22.30
2022-10-30T12:24:10.943Z,22.50
2022-10-30T12:25:33.013Z,22.50
2022-10-30T12:26:55.952Z,22.50
2022-10-30T12:28:23.251Z,22.30
2022-10-30T12:30:16.771Z,22.20
2022-10-30T12:31:45.956Z,22.20
2022-10-30T12:33:16.927Z,22.00
2022-10-30T12:35:00.292Z,21.90
2022-10-30T12:36:25.283Z,21.80
2022-10-30T12:37:49.365Z,21.80
2022-10-30T12:39:30.613Z,21.70
2022-10-30T12:41:12.526Z,21.60
2022-10-30T12:42:40.047Z,21.60
2022-10-30T12:44:14.555Z,21.50
2022-10-30T12:45:43.496Z,21.40
2022-10-30T12:47:20.201Z,21.40
2022-10-30T12:48:51.507Z,21.30
2022-10-30T12:50:13.509Z,21.20
2022-10-30T12:51:42.336Z,21.10
2022-10-30T12:53:19.494Z,21.10
2022-10-30T12:54:57.382Z,21.00
2022-10-30T12:56:26.753Z,21.00
2022-10-30T12:58:14.994Z,21.00
2022-10-30T12:59:44.547Z,21.10
2022-10-30T13:01:37.025Z,21.10
2022-10-30T13:03:24.096Z,21.10
2022-10-30T13:04:50.216Z,21.10
2022-10-30T13:06:27.563Z,21.10
2022-10-30T13:07:59.470Z,21.10
2022-10-30T13:09:48.162Z,21.10
2022-10-30T13:11:15.255Z,21.10
2022-10-30T13:12:40.739Z,21.10
2022-10-30T13:14:04.457Z,21.10
2022-10-30T13:15:43.393Z,21.10
2022-10-30T13:17:11.000Z,21.00
2022-10-30T13:18:40.116Z,21.00
2022-10-30T13:20:02.180Z,21.00
2022-10-30T13:21:28.449Z,21.10
2022-10-30T13:23:03.485Z,21.10
2022-10-30T13:24:48.394Z,21.10
2022-10-30T13:26:16.385Z,21.00
2022-10-30T13:27:46.015Z,21.00
2022-10-30T13:29:22.256Z,20.90
2022-10-30T13:31:06.453Z,20.90
2022-10-30T13:33:05.718Z,20.80
2022-10-30T13:35:01.596Z,20.80
2022-10-30T13:36:38.214Z,20.80
2022-10-30T13:38:05.636Z,20.70
2022-10-30T13:40:15.110Z,20.70
2022-10-30T13:41:43.772Z,20.70
2022-10-30T13:43:28.684Z,20.70
2022-10-30T13:44:59.481Z,20.70
2022-10-30T13:46:27.790Z,20.70
2022-10-30T13:48:11.356Z,20.70
2022-10-30T13:49:54.431Z,20.60
2022-10-30T13:51:47.252Z,20.60
2022-10-30T13:53:18.408Z,20.60
2022-10-30T13:55:07.079Z,20.50
2022-10-30T13:56:30.227Z,20.40
2022-10-30T13:58:21.493Z,20.40
2022-10-30T14:00:13.800Z,20.40
2022-10-30T14:01:47.763Z,20.30
2022-10-30T14:03:32.557Z,20.30
2022-10-30T14:05:32.028Z,20.20
2022-10-30T14:07:28.941Z,20.20
2022-10-30T14:09:11.946Z,20.10
2022-10-30T14:11:00.356Z,20.10
2022-10-30T14:12:46.496Z,20.00
2022-10-30T14:14:23.978Z,20.00
2022-10-30T14:15:46.946Z,20.00
2022-10-30T14:17:17.072Z,19.90
2022-10-30T14:18:46.557Z,19.90
2022-10-30T14:20:14.450Z,19.80
2022-10-30T14:21:50.864Z,19.80
2022-10-30T14:23:35.348Z,19.70
2022-10-30T14:24:58.708Z,19.70
2022-10-30T14:26:21.700Z,19.60
2022-10-30T14:27:54.688Z,19.60
2022-10-30T14:29:35.615Z,19.50
2022-10-30T14:31:03.540Z,19.50
2022-10-30T14:32:25.555Z,19.40
2022-10-30T14:33:51.710Z,19.40
2022-10-30T14:35:33.016Z,19.40
2022-10-30T14:36:55.051Z,19.30
2022-10-30T14:38:24.077Z,19.30
2022-10-30T14:39:46.778Z,19.30
2022-10-30T14:41:42.721Z,19.20
2022-10-30T14:43:23.179Z,19.10
2022-10-30T14:45:22.484Z,19.10
2022-10-30T14:46:59.107Z,19.00
2022-10-30T14:48:38.827Z,19.00
2022-10-30T14:50:22.515Z,18.90
2022-10-30T14:51:53.923Z,18.80
2022-10-30T14:53:49.553Z,18.70
2022-10-30T14:55:55.727Z,18.60
2022-10-30T14:57:22.741Z,18.60
2022-10-30T14:58:55.367Z,18.50
2022-10-30T15:00:29.414Z,18.40
2022-10-30T15:02:06.160Z,18.40
2022-10-30T15:03:47.565Z,18.30
2022-10-30T15:05:17.262Z,18.30
2022-10-30T15:07:16.253Z,18.20
2022-10-30T15:08:59.708Z,18.10
2022-10-30T15:10:36.610Z,18.00
2022-10-30T15:12:23.513Z,17.90
2022-10-30T15:13:59.734Z,17.90
2022-10-30T15:15:22.269Z,17.80
2022-10-30T15:16:44.366Z,17.70
2022-10-30T15:18:16.066Z,17.70
2022-10-30T15:19:40.473Z,17.60
2022-10-30T15:21:07.380Z,17.60
2022-10-30T15:22:30.218Z,17.50
2022-10-30T15:23:57.681Z,17.50
2022-10-30T15:25:22.589Z,17.40
2022-10-30T15:26:52.528Z,17.30
2022-10-30T15:28:21.500Z,17.30
2022-10-30T15:29:51.827Z,17.20
2022-10-30T15:31:28.738Z,17.10
2022-10-30T15:32:51.019Z,17.10
2022-10-30T15:34:22.974Z,17.00
2022-10-30T15:35:47.603Z,17.00
2022-10-30T15:37:13.012Z,16.90
2022-10-30T15:38:35.029Z,16.80
2022-10-30T15:40:26.467Z,16.80
2022-10-30T15:42:00.814Z,16.70
2022-10-30T15:43:25.932Z,16.60
2022-10-30T15:44:48.191Z,16.60
2022-10-30T15:46:11.383Z,16.50
2022-10-30T15:47:33.466Z,16.50
2022-10-30T15:48:55.531Z,16.40
2022-10-30T15:50:19.991Z,16.40
2022-10-30T15:51:46.846Z,16.40
2022-10-30T15:53:19.211Z,16.30
2022-10-30T15:54:44.079Z,16.30
2022-10-30T15:56:11.795Z,16.30
2022-10-30T15:58:02.462Z,16.20
2022-10-30T15:59:29.627Z,16.20
2022-10-30T16:00:56.832Z,16.20
2022-10-30T16:02:22.487Z,16.10
2022-10-30T16:03:52.850Z,16.10
2022-10-30T16:05:24.212Z,16.10
2022-10-30T16:07:00.770Z,16.00
2022-10-30T16:08:24.365Z,16.00
2022-10-30T16:10:15.894Z,16.00
2022-10-30T16:11:39.233Z,15.90
2022-10-30T16:13:02.558Z,15.90
2022-10-30T16:14:27.579Z,15.80
2022-10-30T16:15:50.237Z,15.80
2022-10-30T16:17:12.388Z,15.80
2022-10-30T16:18:36.061Z,15.80
2022-10-30T16:20:02.128Z,15.70
2022-10-30T16:21:26.286Z,15.70
2022-10-30T16:22:48.334Z,15.70
2022-10-30T16:24:10.568Z,15.60
2022-10-30T16:25:37.401Z,15.60
2022-10-30T16:27:05.726Z,15.60
2022-10-30T16:28:34.568Z,15.50
2022-10-30T16:29:59.784Z,15.50
2022-10-30T16:31:22.444Z,15.40
2022-10-30T16:32:52.414Z,15.40
2022-10-30T16:34:25.317Z,15.40
2022-10-30T16:35:54.797Z,15.30
2022-10-30T16:37:28.141Z,15.30
2022-10-30T16:38:50.568Z,15.30
2022-10-30T16:40:20.202Z,15.20
2022-10-30T16:41:43.776Z,15.20
2022-10-30T16:43:24.960Z,15.20
2022-10-30T16:44:47.268Z,15.20
2022-10-30T16:46:15.378Z,15.10
2022-10-30T16:47:46.106Z,15.10
2022-10-30T16:49:16.838Z,15.10
2022-10-30T16:50:38.974Z,15.10
2022-10-30T16:52:06.182Z,15.00
2022-10-30T16:53:28.887Z,15.00
2022-10-30T16:55:05.611Z,15.00
2022-10-30T16:56:30.772Z,14.90
2022-10-30T16:57:55.587Z,14.90
2022-10-30T16:59:33.310Z,14.90
2022-10-30T17:01:04.293Z,14.90
2022-10-30T17:02:29.682Z,14.80
2022-10-30T17:03:52.159Z,14.80
2022-10-30T17:05:26.240Z,14.70
2022-10-30T17:06:50.295Z,14.70
2022-10-30T17:08:18.394Z,14.70
2022-10-30T17:09:40.468Z,14.70
2022-10-30T17:11:06.967Z,14.70
2022-10-30T17:12:30.213Z,14.60
2022-10-30T17:13:55.320Z,14.60
2022-10-30T17:15:20.964Z,14.60
2022-10-30T17:16:57.967Z,14.60
2022-10-30T17:18:21.501Z,14.60
2022-10-30T17:19:48.540Z,14.50
2022-10-30T17:21:39.638Z,14.50
2022-10-30T17:23:26.996Z,14.50
2022-10-30T17:24:49.149Z,14.50
2022-10-30T17:26:12.346Z,14.50
2022-10-30T17:27:47.445Z,14.40
2022-10-30T17:29:38.478Z,14.40
2022-10-30T17:31:19.094Z,14.40
2022-10-30T17:32:45.263Z,14.40
2022-10-30T17:34:20.626Z,14.30
2022-10-30T17:35:42.729Z,14.30
2022-10-30T17:37:04.788Z,14.30
2022-10-30T17:38:27.091Z,14.30
2022-10-30T17:39:49.065Z,14.30
2022-10-30T17:41:14.383Z,14.30
2022-10-30T17:42:36.841Z,14.20
2022-10-30T17:43:59.216Z,14.20
2022-10-30T17:45:21.261Z,14.20
2022-10-30T17:46:44.003Z,14.10
2022-10-30T17:48:13.253Z,14.10
2022-10-30T17:49:35.280Z,14.10
2022-10-30T17:50:57.402Z,14.10
2022-10-30T17:52:22.754Z,14.10
2022-10-30T17:53:46.893Z,14.10
2022-10-30T17:55:27.395Z,14.00
2022-10-30T17:56:49.484Z,14.00
2022-10-30T17:58:11.539Z,14.00
2022-10-30T17:59:33.630Z,14.00
2022-10-30T18:00:55.775Z,14.00
2022-10-30T18:02:20.278Z,13.90
2022-10-30T18:03:42.338Z,13.90
2022-10-30T18:05:17.532Z,13.90
2022-10-30T18:06:39.604Z,13.90
2022-10-30T18:08:01.751Z,13.90
2022-10-30T18:09:23.921Z,13.90
2022-10-30T18:10:45.946Z,13.80
2022-10-30T18:12:13.794Z,13.80
2022-10-30T18:13:35.843Z,13.80
2022-10-30T18:14:58.023Z,13.80
2022-10-30T18:16:20.722Z,13.80
2022-10-30T18:17:42.741Z,13.70
2022-10-30T18:19:08.708Z,13.70
2022-10-30T18:20:31.252Z,13.70
2022-10-30T18:21:54.644Z,13.70
2022-10-30T18:25:16.888Z,13.60
2022-10-30T18:26:40.810Z,13.60
2022-10-30T18:28:03.361Z,13.60
2022-10-30T18:29:25.544Z,13.60
2022-10-30T18:30:52.278Z,13.60
2022-10-30T18:32:14.294Z,13.50
2022-10-30T18:33:36.387Z,13.50
2022-10-30T18:34:59.109Z,13.50
2022-10-30T18:36:23.361Z,13.50
2022-10-30T18:37:45.499Z,13.50
2022-10-30T18:39:07.529Z,13.50
2022-10-30T18:40:30.319Z,13.40
2022-10-30T18:41:53.731Z,13.40
2022-10-30T18:43:15.916Z,13.40
2022-10-30T18:44:37.945Z,13.40
2022-10-30T18:45:59.990Z,13.30
2022-10-30T18:47:22.068Z,13.30
2022-10-30T18:48:45.455Z,13.30
2022-10-30T18:50:07.890Z,13.30